Time;durP1;ratioP1;P1;durP2;ratioP2;P2;SDS_P1;SDS_P2;PMS_P1;PMS_P2;Temp;Humidity;BMP_temperature;BMP_pressure;BME280_temperature;BME280_humidity;BME280_pressure;Samples;Min_cycle;Max_cycle;Signal;HPM_P1;HPM_P2
2022/04/30 00:00:46;;;;;;;10.00;6.22;;;;;;;;;;4998746;28;92256;-72
2022/04/30 00:03:12;;;;;;;10.50;6.70;;;;;;;;;;4999145;28;92639;-73
2022/04/30 00:05:39;;;;;;;9.38;6.10;;;;;;;;;;5000963;28;93550;-72
2022/04/30 00:08:06;;;;;;;13.57;6.32;;;;;;;;;;4980664;28;97854;-72
2022/04/30 00:10:37;;;;;;;10.32;7.00;;;;;;;;;;4996518;28;96711;-73
2022/04/30 00:13:07;;;;;;;11.10;6.50;;;;;;;;;;4998626;28;92447;-72
2022/04/30 00:15:34;;;;;;;14.38;7.07;;;;;;;;;;4997604;28;93576;-73
2022/04/30 00:18:02;;;;;;;10.40;6.90;;;;;;;;;;4997470;28;94672;-73
2022/04/30 00:20:28;;;;;;;11.98;7.18;;;;;;;;;;4980583;28;92443;-72
2022/04/30 00:22:55;;;;;;;9.02;6.75;;;;;;;;;;4998566;28;92789;-72
2022/04/30 00:25:21;;;;;;;12.10;6.53;;;;;;;;;;4998068;28;94599;-73
2022/04/30 00:27:48;;;;;;;14.13;7.85;;;;;;;;;;5001734;28;91651;-73
2022/04/30 00:30:15;;;;;;;7.07;6.38;;;;;;;;;;4997995;28;93603;-73
2022/04/30 00:32:42;;;;;;;16.05;6.65;;;;;;;;;;4997689;28;93928;-72
2022/04/30 00:35:08;;;;;;;10.40;7.50;;;;;;;;;;4996486;28;94701;-73
2022/04/30 00:37:35;;;;;;;9.75;6.90;;;;;;;;;;4980431;28;93197;-73
2022/04/30 00:40:02;;;;;;;11.70;7.18;;;;;;;;;;4998251;28;92278;-73
2022/04/30 00:42:28;;;;;;;8.10;6.57;;;;;;;;;;4997745;28;93353;-72
2022/04/30 00:44:55;;;;;;;9.15;7.28;;;;;;;;;;4997461;28;95527;-73
2022/04/30 00:47:21;;;;;;;11.77;7.45;;;;;;;;;;4997518;28;92282;-72
2022/04/30 00:49:48;;;;;;;12.18;7.15;;;;;;;;;;5000769;28;93515;-72
2022/04/30 00:52:15;;;;;;;14.25;7.50;;;;;;;;;;4998308;28;91796;-72
2022/04/30 00:54:44;;;;;;;9.82;7.82;;;;;;;;;;4998128;28;92165;-72
2022/04/30 00:57:13;;;;;;;12.70;7.55;;;;;;;;;;4999344;28;93635;-73
2022/04/30 00:59:40;;;;;;;14.07;7.72;;;;;;;;;;4996255;28;94876;-73
2022/04/30 01:02:10;;;;;;;10.38;8.05;;;;;;;;;;4997444;28;95206;-72
2022/04/30 01:04:56;;;;;;;12.07;7.63;;;;;;;;;;4996006;28;92642;-72
2022/04/30 01:07:23;;;;;;;13.02;7.35;;;;;;;;;;4998012;28;92354;-73
2022/04/30 01:09:51;;;;;;;17.90;8.65;;;;;;;;;;4995339;28;94280;-72
2022/04/30 01:12:17;;;;;;;15.45;8.00;;;;;;;;;;5000100;28;94994;-73
2022/04/30 01:14:44;;;;;;;18.13;8.38;;;;;;;;;;4997523;28;93654;-72
2022/04/30 01:17:12;;;;;;;15.70;7.72;;;;;;;;;;4997744;28;94284;-73
2022/04/30 01:19:41;;;;;;;15.07;8.57;;;;;;;;;;4997530;28;92353;-72
2022/04/30 01:22:13;;;;;;;12.20;8.27;;;;;;;;;;4997418;28;93465;-72
2022/04/30 01:24:40;;;;;;;11.52;8.23;;;;;;;;;;4995510;28;96381;-72
2022/04/30 01:27:07;;;;;;;13.15;7.95;;;;;;;;;;4996100;28;92460;-72
2022/04/30 01:29:36;;;;;;;11.07;8.52;;;;;;;;;;4997390;28;93665;-72
2022/04/30 01:37:38;;;;;;;12.30;7.53;;;;;;;;;;4996691;28;93398;-72
2022/04/30 01:40:08;;;;;;;9.05;7.63;;;;;;;;;;4996153;28;92434;-73
2022/04/30 01:42:40;;;;;;;10.83;7.70;;;;;;;;;;4997779;28;93482;-72
2022/04/30 01:45:07;;;;;;;10.55;7.90;;;;;;;;;;4979674;28;93848;-72
2022/04/30 01:47:35;;;;;;;13.10;7.88;;;;;;;;;;4997227;28;92354;-72
2022/04/30 01:50:02;;;;;;;11.00;7.57;;;;;;;;;;4995114;28;94780;-72
2022/04/30 01:52:30;;;;;;;10.77;7.70;;;;;;;;;;4996233;28;92700;-72
2022/04/30 01:54:56;;;;;;;14.80;7.72;;;;;;;;;;4995900;28;92364;-74
2022/04/30 01:57:25;;;;;;;9.60;7.45;;;;;;;;;;4996218;28;92897;-72
2022/04/30 01:59:53;;;;;;;13.15;7.80;;;;;;;;;;4980160;28;92426;-73
2022/04/30 02:02:26;;;;;;;11.90;6.82;;;;;;;;;;4996769;28;93343;-72
2022/04/30 02:04:54;;;;;;;9.95;7.00;;;;;;;;;;4996791;28;93430;-71
2022/04/30 02:07:22;;;;;;;9.73;7.30;;;;;;;;;;4997417;28;91531;-73
2022/04/30 02:09:51;;;;;;;7.72;6.90;;;;;;;;;;4997151;28;92670;-72
2022/04/30 02:12:18;;;;;;;11.40;6.93;;;;;;;;;;4996737;28;93680;-72
2022/04/30 02:14:54;;;;;;;11.35;6.45;;;;;;;;;;4995672;28;94734;-73
2022/04/30 02:17:22;;;;;;;13.48;6.10;;;;;;;;;;4999092;28;95173;-73
2022/04/30 02:22:38;;;;;;;11.98;6.47;;;;;;;;;;4996546;28;93383;-72
2022/04/30 02:25:09;;;;;;;9.80;6.53;;;;;;;;;;4996539;28;93595;-73
2022/04/30 02:27:37;;;;;;;11.07;6.53;;;;;;;;;;4993922;28;92933;-72
2022/04/30 02:30:05;;;;;;;9.00;6.25;;;;;;;;;;4996734;28;93583;-72
2022/04/30 02:32:38;;;;;;;8.77;6.80;;;;;;;;;;4997162;28;91934;-72
2022/04/30 02:35:06;;;;;;;11.30;6.80;;;;;;;;;;4996230;28;92409;-72
2022/04/30 02:37:32;;;;;;;7.13;6.45;;;;;;;;;;4979174;28;93905;-72
2022/04/30 02:39:58;;;;;;;8.15;6.60;;;;;;;;;;5000978;28;97018;-73
2022/04/30 02:42:25;;;;;;;12.45;6.85;;;;;;;;;;4999493;28;96182;-72
2022/04/30 02:44:52;;;;;;;8.63;6.68;;;;;;;;;;4998526;28;94707;-72
2022/04/30 02:47:19;;;;;;;8.60;6.97;;;;;;;;;;4995361;28;92417;-72
2022/04/30 02:49:45;;;;;;;8.43;7.13;;;;;;;;;;4998528;28;93612;-72
2022/04/30 02:52:12;;;;;;;11.73;7.30;;;;;;;;;;4999591;28;93106;-72
2022/04/30 02:54:39;;;;;;;10.73;7.43;;;;;;;;;;4999948;28;92276;-72
2022/04/30 02:57:05;;;;;;;12.20;7.25;;;;;;;;;;4999801;28;92991;-72
2022/04/30 03:02:37;;;;;;;8.65;6.45;;;;;;;;;;5002283;28;92415;-71
2022/04/30 03:05:05;;;;;;;11.20;7.72;;;;;;;;;;4998026;28;95298;-73
2022/04/30 03:07:31;;;;;;;10.30;7.00;;;;;;;;;;5000314;28;92239;-72
2022/04/30 03:09:57;;;;;;;12.02;7.70;;;;;;;;;;4999725;28;93448;-72
2022/04/30 03:12:24;;;;;;;13.00;6.97;;;;;;;;;;4999490;28;93615;-73
2022/04/30 03:14:50;;;;;;;11.23;7.28;;;;;;;;;;4999420;28;92244;-72
2022/04/30 03:22:57;;;;;;;10.05;6.88;;;;;;;;;;4928967;28;91661;-72
2022/04/30 03:25:24;;;;;;;11.75;7.50;;;;;;;;;;5001915;28;92826;-72
2022/04/30 03:27:53;;;;;;;9.38;7.10;;;;;;;;;;4999112;28;92258;-72
2022/04/30 03:30:19;;;;;;;12.80;7.80;;;;;;;;;;4979688;28;94784;-72
2022/04/30 03:32:45;;;;;;;12.18;7.60;;;;;;;;;;4998987;28;93600;-72
2022/04/30 03:35:12;;;;;;;10.98;7.05;;;;;;;;;;4998811;28;92224;-72
2022/04/30 03:37:38;;;;;;;9.90;7.00;;;;;;;;;;4981222;28;94480;-72
2022/04/30 03:40:05;;;;;;;9.23;7.15;;;;;;;;;;4998933;28;93335;-72
2022/04/30 03:42:33;;;;;;;9.38;7.43;;;;;;;;;;4999210;28;92223;-72
2022/04/30 03:45:02;;;;;;;9.38;6.68;;;;;;;;;;5001489;28;93787;-72
2022/04/30 03:47:28;;;;;;;12.32;7.00;;;;;;;;;;4999260;28;92385;-73
2022/04/30 03:49:55;;;;;;;10.32;7.47;;;;;;;;;;4998639;28;92586;-72
2022/04/30 03:52:22;;;;;;;9.82;8.00;;;;;;;;;;4998615;28;93802;-72
2022/04/30 03:54:48;;;;;;;15.27;7.60;;;;;;;;;;4996920;28;94636;-72
2022/04/30 03:57:14;;;;;;;9.85;7.40;;;;;;;;;;4998115;28;95736;-72
2022/04/30 03:59:41;;;;;;;13.07;8.60;;;;;;;;;;4997229;28;93474;-73
2022/04/30 04:02:07;;;;;;;13.73;7.85;;;;;;;;;;4998733;28;92078;-73
2022/04/30 04:04:34;;;;;;;10.13;7.40;;;;;;;;;;4998662;28;93683;-73
2022/04/30 04:07:02;;;;;;;8.60;6.68;;;;;;;;;;5000613;28;93815;-72
2022/04/30 04:09:28;;;;;;;12.85;8.02;;;;;;;;;;4998534;28;92707;-72
2022/04/30 04:11:55;;;;;;;14.68;7.95;;;;;;;;;;4998637;28;93196;-73
2022/04/30 04:19:53;;;;;;;10.93;7.40;;;;;;;;;;4996005;28;96104;-72
2022/04/30 04:22:19;;;;;;;9.90;6.72;;;;;;;;;;4997967;28;92410;-72
2022/04/30 04:27:30;;;;;;;9.98;7.40;;;;;;;;;;4998097;28;93665;-73
2022/04/30 04:29:58;;;;;;;11.95;7.40;;;;;;;;;;5001454;28;92187;-72
2022/04/30 04:32:24;;;;;;;11.27;7.72;;;;;;;;;;4998097;28;93066;-73
2022/04/30 04:34:51;;;;;;;10.65;7.63;;;;;;;;;;4998267;28;92364;-73
2022/04/30 04:37:18;;;;;;;12.00;8.02;;;;;;;;;;4997412;28;94656;-72
2022/04/30 04:39:44;;;;;;;11.18;7.88;;;;;;;;;;4997837;28;93751;-72
2022/04/30 04:42:11;;;;;;;12.23;7.65;;;;;;;;;;4997894;28;92366;-72
2022/04/30 04:44:37;;;;;;;12.27;7.90;;;;;;;;;;4995235;28;95028;-72
2022/04/30 04:47:03;;;;;;;9.13;7.13;;;;;;;;;;4997667;28;93719;-71
2022/04/30 04:49:31;;;;;;;10.43;7.38;;;;;;;;;;4997895;28;92318;-72
2022/04/30 04:51:57;;;;;;;10.02;7.53;;;;;;;;;;4983000;28;92419;-73
2022/04/30 04:54:24;;;;;;;10.18;8.05;;;;;;;;;;4997785;28;92393;-72
2022/04/30 04:56:50;;;;;;;8.75;7.18;;;;;;;;;;4997604;28;93151;-73
2022/04/30 04:59:16;;;;;;;13.15;7.85;;;;;;;;;;4979172;28;94620;-73
2022/04/30 05:01:43;;;;;;;12.07;7.55;;;;;;;;;;4997920;28;91651;-73
2022/04/30 05:04:10;;;;;;;10.73;7.75;;;;;;;;;;4997683;28;92572;-73
2022/04/30 05:06:36;;;;;;;10.35;7.55;;;;;;;;;;4997172;28;93140;-72
2022/04/30 05:09:02;;;;;;;9.77;7.35;;;;;;;;;;4978156;28;94900;-73
2022/04/30 05:11:29;;;;;;;9.70;7.65;;;;;;;;;;4997223;28;96106;-73
2022/04/30 05:13:55;;;;;;;10.65;7.80;;;;;;;;;;4982516;28;93996;-73
2022/04/30 05:16:21;;;;;;;12.70;7.57;;;;;;;;;;4999478;28;93711;-73
2022/04/30 05:18:48;;;;;;;11.57;7.90;;;;;;;;;;4997886;28;93654;-71
2022/04/30 05:21:14;;;;;;;10.18;7.15;;;;;;;;;;4997183;28;92324;-73
2022/04/30 05:23:40;;;;;;;9.15;8.15;;;;;;;;;;4997381;28;93289;-72
2022/04/30 05:26:07;;;;;;;9.63;7.82;;;;;;;;;;4997491;28;92086;-72
2022/04/30 05:28:33;;;;;;;11.70;7.50;;;;;;;;;;4997354;28;92310;-72
2022/04/30 05:30:59;;;;;;;10.23;7.90;;;;;;;;;;4979507;28;94375;-72
2022/04/30 05:33:26;;;;;;;8.80;7.78;;;;;;;;;;4993900;28;98342;-73
2022/04/30 05:35:53;;;;;;;10.18;7.70;;;;;;;;;;4981694;28;92310;-73
2022/04/30 05:38:20;;;;;;;10.25;8.02;;;;;;;;;;4997077;28;93815;-72
2022/04/30 05:40:46;;;;;;;9.93;7.85;;;;;;;;;;4997113;28;93558;-74
2022/04/30 05:43:13;;;;;;;9.30;7.32;;;;;;;;;;4997211;28;93333;-73
2022/04/30 05:45:39;;;;;;;13.35;8.15;;;;;;;;;;4996642;28;94219;-73
2022/04/30 05:48:06;;;;;;;9.27;7.82;;;;;;;;;;4996518;28;92359;-73
2022/04/30 05:50:33;;;;;;;12.70;7.95;;;;;;;;;;4997518;28;93828;-72
2022/04/30 05:52:59;;;;;;;11.73;8.35;;;;;;;;;;4996968;28;94051;-72
2022/04/30 05:55:26;;;;;;;11.98;8.55;;;;;;;;;;5000175;28;92305;-72
2022/04/30 05:57:52;;;;;;;13.63;8.77;;;;;;;;;;4994837;28;96380;-72
2022/04/30 06:00:19;;;;;;;16.15;8.45;;;;;;;;;;4979101;28;92411;-73
2022/04/30 06:02:48;;;;;;;12.05;9.05;;;;;;;;;;4996310;28;92949;-72
2022/04/30 06:05:15;;;;;;;10.25;8.10;;;;;;;;;;4996683;28;93345;-72
2022/04/30 06:07:42;;;;;;;11.18;8.43;;;;;;;;;;4996752;28;92459;-72
2022/04/30 06:10:08;;;;;;;14.10;9.40;;;;;;;;;;4978918;28;94351;-73
2022/04/30 06:12:35;;;;;;;13.07;8.50;;;;;;;;;;4997602;28;93868;-72
2022/04/30 06:15:01;;;;;;;17.35;8.32;;;;;;;;;;5000880;28;91665;-72
2022/04/30 06:17:28;;;;;;;15.90;9.13;;;;;;;;;;5002880;28;93840;-72
2022/04/30 06:19:57;;;;;;;11.60;8.52;;;;;;;;;;4999942;28;92285;-72
2022/04/30 06:22:24;;;;;;;11.68;8.45;;;;;;;;;;4998640;28;94799;-73
2022/04/30 06:24:51;;;;;;;10.35;8.60;;;;;;;;;;4999890;28;93500;-72
2022/04/30 06:27:17;;;;;;;10.82;9.02;;;;;;;;;;4999010;28;92263;-73
2022/04/30 06:29:44;;;;;;;11.35;8.93;;;;;;;;;;5000033;28;93196;-71
2022/04/30 06:32:11;;;;;;;10.95;8.55;;;;;;;;;;4999443;28;93148;-73
2022/04/30 06:34:39;;;;;;;15.13;10.18;;;;;;;;;;4999545;28;92318;-71
2022/04/30 06:37:06;;;;;;;15.45;9.70;;;;;;;;;;4999167;28;92903;-72
2022/04/30 06:39:32;;;;;;;15.55;10.80;;;;;;;;;;5003158;28;92343;-72
2022/04/30 06:41:58;;;;;;;15.90;10.93;;;;;;;;;;4999073;28;92339;-71
2022/04/30 06:44:25;;;;;;;19.92;9.98;;;;;;;;;;4998515;28;93407;-73
2022/04/30 06:46:51;;;;;;;16.05;10.32;;;;;;;;;;4997198;28;94734;-71
2022/04/30 06:49:17;;;;;;;14.93;9.38;;;;;;;;;;4998572;28;95805;-72
2022/04/30 06:51:45;;;;;;;14.43;8.98;;;;;;;;;;4999557;28;92339;-71
2022/04/30 06:57:11;;;;;;;12.27;8.40;;;;;;;;;;4999004;28;92952;-72
2022/04/30 06:59:41;;;;;;;11.57;8.20;;;;;;;;;;4998904;28;93458;-71
2022/04/30 07:02:22;;;;;;;16.23;8.25;;;;;;;;;;5002602;28;92267;-71
2022/04/30 07:04:51;;;;;;;13.50;8.23;;;;;;;;;;5004221;28;93843;-70
2022/04/30 07:07:21;;;;;;;9.15;8.25;;;;;;;;;;4992152;28;92382;-72
2022/04/30 07:09:48;;;;;;;13.38;8.18;;;;;;;;;;5007417;28;93544;-71
2022/04/30 07:12:14;;;;;;;12.15;9.10;;;;;;;;;;5003556;28;96061;-71
2022/04/30 07:14:41;;;;;;;8.88;8.05;;;;;;;;;;5008611;28;92360;-71
2022/04/30 07:17:11;;;;;;;14.55;8.15;;;;;;;;;;5008407;28;93295;-72
2022/04/30 07:19:38;;;;;;;10.70;7.90;;;;;;;;;;5007877;28;94008;-72
2022/04/30 07:22:07;;;;;;;10.88;8.32;;;;;;;;;;5006148;28;92393;-71
2022/04/30 07:24:34;;;;;;;9.77;7.88;;;;;;;;;;5009342;28;93641;-72
2022/04/30 07:27:01;;;;;;;9.05;7.43;;;;;;;;;;5007264;28;92317;-71
2022/04/30 07:29:27;;;;;;;10.80;7.20;;;;;;;;;;5007211;28;93481;-70
2022/04/30 07:31:54;;;;;;;9.02;6.72;;;;;;;;;;5006503;28;93490;-71
2022/04/30 07:34:20;;;;;;;8.98;6.60;;;;;;;;;;5008843;28;92278;-71
2022/04/30 07:36:47;;;;;;;7.72;6.30;;;;;;;;;;5006694;28;94623;-72
2022/04/30 07:39:13;;;;;;;7.93;6.15;;;;;;;;;;5007664;28;93052;-72
2022/04/30 07:41:52;;;;;;;8.10;6.10;;;;;;;;;;5005904;28;92443;-72
2022/04/30 07:44:30;;;;;;;16.15;6.18;;;;;;;;;;4988121;28;93796;-73
2022/04/30 07:46:56;;;;;;;6.65;6.05;;;;;;;;;;5007035;28;92422;-74
2022/04/30 07:49:23;;;;;;;6.93;5.47;;;;;;;;;;5008560;28;92962;-72
2022/04/30 07:51:53;;;;;;;9.13;6.18;;;;;;;;;;5007955;28;93283;-72
2022/04/30 07:54:20;;;;;;;9.82;6.55;;;;;;;;;;5008081;28;91627;-73
2022/04/30 07:56:47;;;;;;;6.30;5.70;;;;;;;;;;5008385;28;92936;-73
2022/04/30 07:59:13;;;;;;;7.07;6.22;;;;;;;;;;5005877;28;93220;-72
2022/04/30 08:01:40;;;;;;;9.88;6.68;;;;;;;;;;5007077;28;94717;-71
2022/04/30 08:04:06;;;;;;;8.70;6.25;;;;;;;;;;4988366;28;96668;-71
2022/04/30 08:06:33;;;;;;;13.90;7.85;;;;;;;;;;5011826;28;93850;-73
2022/04/30 08:08:59;;;;;;;6.72;5.80;;;;;;;;;;5007131;28;93691;-71
2022/04/30 08:11:26;;;;;;;9.30;6.97;;;;;;;;;;5006993;28;93551;-71
2022/04/30 08:13:52;;;;;;;8.45;6.40;;;;;;;;;;5008545;28;93601;-72
2022/04/30 08:16:20;;;;;;;8.07;6.43;;;;;;;;;;5006171;28;92410;-71
2022/04/30 08:18:47;;;;;;;6.45;5.50;;;;;;;;;;5009710;28;92864;-71
2022/04/30 08:21:13;;;;;;;5.32;4.82;;;;;;;;;;5001265;28;92309;-71
2022/04/30 08:23:39;;;;;;;8.75;5.07;;;;;;;;;;5006348;28;94680;-71
2022/04/30 08:26:06;;;;;;;7.07;5.40;;;;;;;;;;4988646;28;98500;-71
2022/04/30 08:28:32;;;;;;;7.82;4.97;;;;;;;;;;5010806;28;92183;-71
2022/04/30 08:30:59;;;;;;;8.50;5.18;;;;;;;;;;5002949;28;93694;-71
2022/04/30 08:33:26;;;;;;;6.00;5.22;;;;;;;;;;5008716;28;92291;-71
2022/04/30 08:35:53;;;;;;;5.75;4.82;;;;;;;;;;5005207;28;93269;-72
2022/04/30 08:38:19;;;;;;;6.38;5.57;;;;;;;;;;5001817;28;93660;-72
2022/04/30 08:40:46;;;;;;;7.53;5.30;;;;;;;;;;4985449;28;92395;-72
2022/04/30 08:43:14;;;;;;;4.95;4.45;;;;;;;;;;5006713;28;95127;-72
2022/04/30 08:45:41;;;;;;;10.48;5.38;;;;;;;;;;5006945;28;94657;-71
2022/04/30 08:48:08;;;;;;;6.20;4.50;;;;;;;;;;5007462;28;92390;-74
2022/04/30 08:50:35;;;;;;;5.28;4.78;;;;;;;;;;5008002;28;94537;-72
2022/04/30 08:53:02;;;;;;;4.85;4.50;;;;;;;;;;5007955;28;92255;-72
2022/04/30 08:55:28;;;;;;;5.93;5.18;;;;;;;;;;5001069;28;95086;-75
2022/04/30 08:57:54;;;;;;;5.57;4.97;;;;;;;;;;5000918;28;92695;-73
2022/04/30 09:00:21;;;;;;;4.55;4.25;;;;;;;;;;5005274;28;92417;-73
2022/04/30 09:02:51;;;;;;;4.78;4.28;;;;;;;;;;5007668;28;93527;-72
2022/04/30 09:05:18;;;;;;;6.90;4.90;;;;;;;;;;5006268;28;94011;-74
2022/04/30 09:07:54;;;;;;;4.45;4.05;;;;;;;;;;5007514;28;92232;-74
2022/04/30 09:10:21;;;;;;;7.47;4.35;;;;;;;;;;5004980;28;92437;-74
2022/04/30 09:12:48;;;;;;;4.55;4.15;;;;;;;;;;4984422;28;93785;-74
2022/04/30 09:15:15;;;;;;;4.18;3.83;;;;;;;;;;5005690;28;94610;-73
2022/04/30 09:17:42;;;;;;;7.57;3.30;;;;;;;;;;5005451;28;94311;-74
2022/04/30 09:20:16;;;;;;;4.45;4.05;;;;;;;;;;5006462;28;92421;-72
2022/04/30 09:22:43;;;;;;;7.63;4.30;;;;;;;;;;5005643;28;93201;-74
2022/04/30 09:25:13;;;;;;;5.68;4.45;;;;;;;;;;5007215;28;95088;-76
2022/04/30 09:27:59;;;;;;;4.68;4.22;;;;;;;;;;5005197;28;92421;-79
2022/04/30 09:30:28;;;;;;;6.50;3.80;;;;;;;;;;5004963;28;92850;-75
2022/04/30 09:32:57;;;;;;;5.25;3.97;;;;;;;;;;5005428;28;92731;-75
2022/04/30 09:38:10;;;;;;;5.95;4.30;;;;;;;;;;5006174;28;93772;-77
2022/04/30 09:40:36;;;;;;;4.75;4.32;;;;;;;;;;5001102;28;95108;-80
2022/04/30 09:43:04;;;;;;;8.02;5.15;;;;;;;;;;5007295;28;96256;-78
2022/04/30 09:45:33;;;;;;;5.15;4.63;;;;;;;;;;5005540;28;92659;-76
2022/04/30 09:48:00;;;;;;;6.95;4.00;;;;;;;;;;5006713;28;92216;-79
2022/04/30 09:56:07;;;;;;;6.82;4.45;;;;;;;;;;4988249;28;92247;-76
2022/04/30 09:58:39;;;;;;;5.20;4.70;;;;;;;;;;5004779;28;93164;-72
2022/04/30 10:01:06;;;;;;;3.95;3.60;;;;;;;;;;5003822;28;92395;-73
2022/04/30 10:03:34;;;;;;;4.50;3.80;;;;;;;;;;5005812;28;93267;-73
2022/04/30 10:06:02;;;;;;;8.80;4.15;;;;;;;;;;5003806;28;96885;-73
2022/04/30 10:08:31;;;;;;;5.10;3.75;;;;;;;;;;5007066;28;92315;-73
2022/04/30 10:11:21;;;;;;;6.95;3.90;;;;;;;;;;5004730;28;93548;-75
2022/04/30 10:14:15;;;;;;;5.45;4.40;;;;;;;;;;5004939;28;93648;-74
2022/04/30 10:17:09;;;;;;;12.40;4.60;;;;;;;;;;4978250;28;92535;-74
2022/04/30 10:19:28;;;;;;;6.40;4.68;;;;;;;;;;5008737;28;93542;-74
2022/04/30 10:22:07;;;;;;;5.35;4.25;;;;;;;;;;5000448;28;92848;-73
2022/04/30 10:24:33;;;;;;;4.78;4.47;;;;;;;;;;5003673;28;93084;-73
2022/04/30 10:27:00;;;;;;;7.47;4.18;;;;;;;;;;4989576;28;93459;-74
2022/04/30 10:29:26;;;;;;;4.97;4.50;;;;;;;;;;5008591;28;93122;-73
2022/04/30 10:31:53;;;;;;;6.03;4.57;;;;;;;;;;5001495;28;94751;-73
2022/04/30 10:34:30;;;;;;;18.67;4.72;;;;;;;;;;5004289;28;93945;-73
2022/04/30 10:37:00;;;;;;;6.88;4.00;;;;;;;;;;5000283;28;92173;-75
2022/04/30 10:39:26;;;;;;;5.93;4.00;;;;;;;;;;5004508;28;93400;-73
2022/04/30 10:41:57;;;;;;;10.95;4.00;;;;;;;;;;5002414;28;93513;-74
2022/04/30 10:44:27;;;;;;;9.98;3.80;;;;;;;;;;5003854;28;93492;-74
2022/04/30 10:46:53;;;;;;;12.93;4.65;;;;;;;;;;5003821;28;93559;-73
2022/04/30 10:49:19;;;;;;;3.95;3.65;;;;;;;;;;5006833;28;91576;-73
2022/04/30 10:51:46;;;;;;;6.15;4.63;;;;;;;;;;5003049;28;94437;-73
2022/04/30 10:54:16;;;;;;;4.03;3.63;;;;;;;;;;5006017;28;93230;-73
2022/04/30 10:56:56;;;;;;;7.07;4.40;;;;;;;;;;5003935;28;94776;-72
2022/04/30 10:59:26;;;;;;;5.63;3.90;;;;;;;;;;5003508;28;96088;-73
2022/04/30 11:01:53;;;;;;;6.88;3.70;;;;;;;;;;5009146;28;95828;-72
2022/04/30 11:04:20;;;;;;;8.23;4.15;;;;;;;;;;5011635;28;92277;-73
2022/04/30 11:06:51;;;;;;;4.85;3.65;;;;;;;;;;4992983;28;93566;-72
2022/04/30 11:09:18;;;;;;;6.20;4.15;;;;;;;;;;5008941;28;92482;-73
2022/04/30 11:11:46;;;;;;;162.30;124.50;;;;;;;;;;5005497;28;93294;-72
2022/04/30 11:14:13;;;;;;;10.90;4.65;;;;;;;;;;5009101;28;92872;-73
2022/04/30 11:16:41;;;;;;;5.00;4.50;;;;;;;;;;5010460;28;92484;-73
2022/04/30 11:19:10;;;;;;;14.38;4.20;;;;;;;;;;5006465;28;92807;-73
2022/04/30 11:21:38;;;;;;;5.53;4.20;;;;;;;;;;5002900;28;96211;-74
2022/04/30 11:24:05;;;;;;;4.90;4.00;;;;;;;;;;4991494;28;92419;-73
2022/04/30 11:26:37;;;;;;;4.53;4.07;;;;;;;;;;5010550;28;94136;-73
2022/04/30 11:29:10;;;;;;;9.98;3.92;;;;;;;;;;5009382;28;92405;-73
2022/04/30 11:31:37;;;;;;;5.35;4.28;;;;;;;;;;5004670;28;93390;-73
2022/04/30 11:34:07;;;;;;;5.28;3.95;;;;;;;;;;5008945;28;93651;-73
2022/04/30 11:36:37;;;;;;;4.85;4.10;;;;;;;;;;5007294;28;92941;-73
2022/04/30 11:39:04;;;;;;;6.35;3.85;;;;;;;;;;5009229;28;94189;-73
2022/04/30 11:41:36;;;;;;;5.22;4.07;;;;;;;;;;5005244;28;93915;-73
2022/04/30 11:44:03;;;;;;;4.38;3.88;;;;;;;;;;5008496;28;92371;-73
2022/04/30 11:46:29;;;;;;;6.13;4.00;;;;;;;;;;5007313;28;94586;-73
2022/04/30 11:48:56;;;;;;;10.55;4.00;;;;;;;;;;5009847;28;95775;-74
2022/04/30 11:51:26;;;;;;;7.57;3.88;;;;;;;;;;5006137;28;92731;-73
2022/04/30 11:53:52;;;;;;;5.30;4.20;;;;;;;;;;5009698;28;93171;-72
2022/04/30 11:56:24;;;;;;;;;;;;;;;;;;5007528;28;93180;-72
2022/04/30 11:58:50;;;;;;;6.68;3.80;;;;;;;;;;5005233;28;105745;-72
2022/04/30 12:01:20;;;;;;;4.28;3.50;;;;;;;;;;4987715;28;93575;-73
2022/04/30 12:03:51;;;;;;;3.67;3.30;;;;;;;;;;5009494;28;91638;-73
2022/04/30 12:06:19;;;;;;;4.32;3.50;;;;;;;;;;5003788;28;92430;-73
2022/04/30 12:08:45;;;;;;;6.20;3.75;;;;;;;;;;5007433;28;94758;-73
2022/04/30 12:11:12;;;;;;;4.13;3.72;;;;;;;;;;5004729;28;94765;-73
2022/04/30 12:13:38;;;;;;;4.13;3.83;;;;;;;;;;4987602;28;94727;-72
2022/04/30 12:16:05;;;;;;;4.63;4.22;;;;;;;;;;5008617;28;92473;-72
2022/04/30 12:26:56;;;;;;;5.97;4.28;;;;;;;;;;5006972;28;93738;-73
2022/04/30 12:29:22;;;;;;;8.30;4.10;;;;;;;;;;5008885;28;92329;-72
2022/04/30 12:31:53;;;;;;;4.18;3.47;;;;;;;;;;5008122;28;92523;-74
2022/04/30 12:34:25;;;;;;;5.38;3.35;;;;;;;;;;5006741;28;94807;-72
2022/04/30 12:36:54;;;;;;;3.63;3.13;;;;;;;;;;5006341;28;94731;-73
2022/04/30 12:39:22;;;;;;;4.95;3.55;;;;;;;;;;5006888;28;94969;-73
2022/04/30 12:41:52;;;;;;;3.58;3.28;;;;;;;;;;4985929;28;93812;-73
2022/04/30 12:44:19;;;;;;;3.30;3.08;;;;;;;;;;5007494;28;92312;-73
2022/04/30 12:46:46;;;;;;;3.10;2.90;;;;;;;;;;5006531;28;92838;-73
2022/04/30 12:49:13;;;;;;;6.88;3.40;;;;;;;;;;5007977;28;93641;-73
2022/04/30 12:51:42;;;;;;;4.78;2.90;;;;;;;;;;5003085;28;92938;-73
2022/04/30 12:54:13;;;;;;;4.47;3.35;;;;;;;;;;5005265;28;93455;-73
2022/04/30 12:56:41;;;;;;;4.80;3.40;;;;;;;;;;5002152;28;92381;-72
2022/04/30 12:59:07;;;;;;;3.65;2.78;;;;;;;;;;4978885;28;93359;-72
2022/04/30 13:01:39;;;;;;;6.82;3.53;;;;;;;;;;5001756;28;96571;-73
2022/04/30 13:04:05;;;;;;;;;;;;;;;;;;5008681;28;92370;-74
2022/04/30 13:06:32;;;;;;;5.15;3.30;;;;;;;;;;5005641;28;120459;-72
2022/04/30 13:14:30;;;;;;;7.93;3.10;;;;;;;;;;5005833;28;92723;-71
2022/04/30 13:16:57;;;;;;;4.18;3.35;;;;;;;;;;4983052;28;93990;-74
2022/04/30 13:19:23;;;;;;;3.45;3.10;;;;;;;;;;5008084;28;93812;-70
2022/04/30 13:21:50;;;;;;;4.53;3.03;;;;;;;;;;5001325;28;95621;-73
2022/04/30 13:24:16;;;;;;;4.03;3.17;;;;;;;;;;5008696;28;92264;-73
2022/04/30 13:26:43;;;;;;;6.25;3.28;;;;;;;;;;5003964;28;94533;-73
2022/04/30 13:29:10;;;;;;;3.97;3.58;;;;;;;;;;5006909;28;93626;-73
2022/04/30 13:31:38;;;;;;;4.82;3.10;;;;;;;;;;5002802;28;92184;-73
2022/04/30 13:34:04;;;;;;;3.22;3.00;;;;;;;;;;5006606;28;92605;-73
2022/04/30 13:36:31;;;;;;;5.00;3.55;;;;;;;;;;5006863;28;94854;-72
2022/04/30 13:38:59;;;;;;;3.53;3.13;;;;;;;;;;5007788;28;92463;-72
2022/04/30 13:41:26;;;;;;;4.20;2.92;;;;;;;;;;5001141;28;93697;-73
2022/04/30 13:43:53;;;;;;;5.00;3.50;;;;;;;;;;5008896;28;91584;-74
2022/04/30 13:46:20;;;;;;;5.43;3.28;;;;;;;;;;5004470;28;93301;-73
2022/04/30 13:48:46;;;;;;;3.67;3.03;;;;;;;;;;5007443;28;93441;-73
2022/04/30 13:51:12;;;;;;;4.38;3.38;;;;;;;;;;5003968;28;95177;-72
2022/04/30 13:53:39;;;;;;;3.60;3.30;;;;;;;;;;5005819;28;96860;-74
2022/04/30 13:56:06;;;;;;;4.75;3.35;;;;;;;;;;4989653;28;93690;-74
2022/04/30 13:58:33;;;;;;;4.38;3.20;;;;;;;;;;5004181;28;92258;-73
2022/04/30 14:00:59;;;;;;;4.10;3.30;;;;;;;;;;5009390;28;94738;-74
2022/04/30 14:03:28;;;;;;;6.07;3.38;;;;;;;;;;4986715;28;92323;-74
2022/04/30 14:05:54;;;;;;;3.85;3.22;;;;;;;;;;5007865;28;94073;-73
2022/04/30 14:08:21;;;;;;;5.10;3.10;;;;;;;;;;5007311;28;92234;-72
2022/04/30 14:10:47;;;;;;;4.65;3.10;;;;;;;;;;5005804;28;93574;-73
2022/04/30 14:15:59;;;;;;;5.43;3.00;;;;;;;;;;5002605;28;96961;-72
2022/04/30 14:18:26;;;;;;;4.10;3.20;;;;;;;;;;5006668;28;93539;-74
2022/04/30 14:20:53;;;;;;;5.18;3.60;;;;;;;;;;4989642;28;96061;-73
2022/04/30 14:23:21;;;;;;;3.47;3.28;;;;;;;;;;5005538;28;92273;-74
2022/04/30 14:25:49;;;;;;;5.07;3.70;;;;;;;;;;5006576;28;93294;-73
2022/04/30 14:28:17;;;;;;;4.05;3.58;;;;;;;;;;5004883;28;93714;-74
2022/04/30 14:30:44;;;;;;;4.93;3.38;;;;;;;;;;5006809;28;92352;-73
2022/04/30 14:33:11;;;;;;;3.67;3.20;;;;;;;;;;5004902;28;94276;-74
2022/04/30 14:35:38;;;;;;;3.38;3.10;;;;;;;;;;5004010;28;93473;-74
2022/04/30 14:38:08;;;;;;;2.90;2.70;;;;;;;;;;5010458;28;92416;-73
2022/04/30 14:40:35;;;;;;;3.20;2.90;;;;;;;;;;5003878;28;94885;-72
2022/04/30 14:43:02;;;;;;;3.30;2.50;;;;;;;;;;5012878;28;93622;-72
2022/04/30 14:45:28;;;;;;;3.60;2.95;;;;;;;;;;5006050;28;93469;-74
2022/04/30 14:47:54;;;;;;;3.20;2.90;;;;;;;;;;5008412;28;94093;-73
2022/04/30 14:50:21;;;;;;;4.65;3.10;;;;;;;;;;5006921;28;92446;-74
2022/04/30 14:52:48;;;;;;;3.78;3.25;;;;;;;;;;5007945;28;92402;-75
2022/04/30 14:55:14;;;;;;;5.72;4.10;;;;;;;;;;5010439;28;94650;-74
2022/04/30 14:57:41;;;;;;;4.93;3.35;;;;;;;;;;5007822;28;91645;-75
2022/04/30 15:00:07;;;;;;;3.72;3.33;;;;;;;;;;5008417;28;92445;-74
2022/04/30 15:02:34;;;;;;;3.80;3.47;;;;;;;;;;5008348;28;96768;-74
2022/04/30 15:05:00;;;;;;;5.15;3.00;;;;;;;;;;5010413;28;94683;-75
2022/04/30 15:07:27;;;;;;;3.10;2.90;;;;;;;;;;5007772;28;93781;-74
2022/04/30 15:09:53;;;;;;;3.88;3.00;;;;;;;;;;5010519;28;93313;-75
2022/04/30 15:12:21;;;;;;;7.32;3.58;;;;;;;;;;5006836;28;93215;-76
2022/04/30 15:14:48;;;;;;;3.45;2.80;;;;;;;;;;5002559;28;94800;-75
2022/04/30 15:17:14;;;;;;;2.83;2.63;;;;;;;;;;4967316;28;93682;-76
2022/04/30 15:19:40;;;;;;;5.20;3.20;;;;;;;;;;5008212;28;92906;-74
2022/04/30 15:22:08;;;;;;;5.97;2.80;;;;;;;;;;5007640;28;93906;-72
2022/04/30 15:24:34;;;;;;;5.32;2.83;;;;;;;;;;5008793;28;92392;-74
2022/04/30 15:27:00;;;;;;;3.38;2.90;;;;;;;;;;5009768;28;93462;-74
2022/04/30 15:29:29;;;;;;;4.25;3.00;;;;;;;;;;5008671;28;94786;-74
2022/04/30 15:31:56;;;;;;;3.95;3.10;;;;;;;;;;4999179;28;94991;-74
2022/04/30 15:34:23;;;;;;;3.28;3.00;;;;;;;;;;5009976;28;93667;-73